sensor_id;sensor_type;location;lat;lon;timestamp;pressure;altitude;pressure_sealevel;temperature;humidity
74242;BME280;62599;49.146;10.426;2023-03-14T00:01:16;94104.72;;;6.60;100.00
74242;BME280;62599;49.146;10.426;2023-03-14T00:03:42;94109.47;;;6.66;100.00
74242;BME280;62599;49.146;10.426;2023-03-14T00:06:08;94119.13;;;6.71;100.00
74242;BME280;62599;49.146;10.426;2023-03-14T00:08:33;94130.69;;;6.75;100.00
74242;BME280;62599;49.146;10.426;2023-03-14T00:11:05;94144.50;;;6.77;100.00
74242;BME280;62599;49.146;10.426;2023-03-14T00:13:30;94148.75;;;6.78;100.00
74242;BME280;62599;49.146;10.426;2023-03-14T00:16:05;94142.47;;;6.86;100.00
74242;BME280;62599;49.146;10.426;2023-03-14T00:18:31;94148.41;;;6.95;100.00
74242;BME280;62599;49.146;10.426;2023-03-14T00:20:58;94166.59;;;6.90;100.00
74242;BME280;62599;49.146;10.426;2023-03-14T00:23:24;94152.22;;;6.94;100.00
74242;BME280;62599;49.146;10.426;2023-03-14T00:25:50;94160.25;;;6.94;100.00
74242;BME280;62599;49.146;10.426;2023-03-14T00:28:15;94150.53;;;6.90;100.00
74242;BME280;62599;49.146;10.426;2023-03-14T00:30:40;94144.41;;;6.89;100.00
74242;BME280;62599;49.146;10.426;2023-03-14T00:33:06;94149.84;;;6.93;100.00
74242;BME280;62599;49.146;10.426;2023-03-14T00:35:31;94148.59;;;6.87;100.00
74242;BME280;62599;49.146;10.426;2023-03-14T00:37:57;94137.44;;;6.85;100.00
74242;BME280;62599;49.146;10.426;2023-03-14T00:40:22;94129.94;;;6.90;100.00
74242;BME280;62599;49.146;10.426;2023-03-14T00:42:47;94129.13;;;6.90;100.00
74242;BME280;62599;49.146;10.426;2023-03-14T00:45:13;94103.94;;;6.91;100.00
74242;BME280;62599;49.146;10.426;2023-03-14T00:47:38;94104.03;;;6.94;100.00
74242;BME280;62599;49.146;10.426;2023-03-14T00:50:04;94090.22;;;6.92;100.00
74242;BME280;62599;49.146;10.426;2023-03-14T00:52:29;94069.66;;;6.96;100.00
74242;BME280;62599;49.146;10.426;2023-03-14T00:54:54;94061.63;;;6.96;100.00
74242;BME280;62599;49.146;10.426;2023-03-14T00:57:20;94078.03;;;6.95;100.00
74242;BME280;62599;49.146;10.426;2023-03-14T00:59:45;94087.88;;;6.91;100.00
74242;BME280;62599;49.146;10.426;2023-03-14T01:02:11;94080.97;;;6.90;100.00
74242;BME280;62599;49.146;10.426;2023-03-14T01:04:36;94088.66;;;6.91;100.00
74242;BME280;62599;49.146;10.426;2023-03-14T01:07:02;94086.84;;;6.95;100.00
74242;BME280;62599;49.146;10.426;2023-03-14T01:09:28;94074.16;;;6.92;100.00
74242;BME280;62599;49.146;10.426;2023-03-14T01:11:53;94069.47;;;6.89;100.00
74242;BME280;62599;49.146;10.426;2023-03-14T01:14:19;94076.34;;;6.87;100.00
74242;BME280;62599;49.146;10.426;2023-03-14T01:16:44;94079.34;;;6.85;100.00
74242;BME280;62599;49.146;10.426;2023-03-14T01:19:09;94067.00;;;6.81;100.00
74242;BME280;62599;49.146;10.426;2023-03-14T01:21:35;94070.81;;;6.80;100.00
74242;BME280;62599;49.146;10.426;2023-03-14T01:24:02;94074.59;;;6.79;100.00
74242;BME280;62599;49.146;10.426;2023-03-14T01:26:31;94072.28;;;6.77;100.00
74242;BME280;62599;49.146;10.426;2023-03-14T01:28:57;94080.66;;;6.75;100.00
74242;BME280;62599;49.146;10.426;2023-03-14T01:31:23;94074.69;;;6.82;100.00
74242;BME280;62599;49.146;10.426;2023-03-14T01:33:49;94064.13;;;6.89;100.00
74242;BME280;62599;49.146;10.426;2023-03-14T01:36:14;94065.00;;;6.93;100.00
74242;BME280;62599;49.146;10.426;2023-03-14T01:38:40;94071.91;;;6.94;100.00
74242;BME280;62599;49.146;10.426;2023-03-14T01:41:08;94077.69;;;6.96;100.00
74242;BME280;62599;49.146;10.426;2023-03-14T01:43:36;94073.53;;;6.99;100.00
74242;BME280;62599;49.146;10.426;2023-03-14T01:48:55;94058.25;;;6.99;100.00
74242;BME280;62599;49.146;10.426;2023-03-14T01:51:29;94048.25;;;6.96;100.00
74242;BME280;62599;49.146;10.426;2023-03-14T01:54:02;94046.00;;;6.98;100.00
74242;BME280;62599;49.146;10.426;2023-03-14T01:56:30;94043.56;;;6.93;100.00
74242;BME280;62599;49.146;10.426;2023-03-14T01:58:56;94022.03;;;6.86;100.00
74242;BME280;62599;49.146;10.426;2023-03-14T02:01:25;94010.03;;;6.80;100.00
74242;BME280;62599;49.146;10.426;2023-03-14T02:03:56;94007.28;;;6.77;100.00
74242;BME280;62599;49.146;10.426;2023-03-14T02:06:26;94004.88;;;6.71;100.00
74242;BME280;62599;49.146;10.426;2023-03-14T02:08:53;93996.00;;;6.67;100.00
74242;BME280;62599;49.146;10.426;2023-03-14T02:11:18;93997.03;;;6.63;100.00
74242;BME280;62599;49.146;10.426;2023-03-14T02:13:44;93993.91;;;6.61;100.00
74242;BME280;62599;49.146;10.426;2023-03-14T02:16:10;94003.78;;;6.57;100.00
74242;BME280;62599;49.146;10.426;2023-03-14T02:18:36;93997.03;;;6.63;100.00
74242;BME280;62599;49.146;10.426;2023-03-14T02:21:16;93990.84;;;6.59;100.00
74242;BME280;62599;49.146;10.426;2023-03-14T02:28:56;93981.50;;;6.53;100.00
74242;BME280;62599;49.146;10.426;2023-03-14T02:31:22;93975.75;;;6.50;100.00
74242;BME280;62599;49.146;10.426;2023-03-14T02:33:48;93973.41;;;6.49;100.00
74242;BME280;62599;49.146;10.426;2023-03-14T02:36:14;93963.50;;;6.49;100.00
74242;BME280;62599;49.146;10.426;2023-03-14T02:41:09;93968.06;;;6.49;100.00
74242;BME280;62599;49.146;10.426;2023-03-14T02:43:34;93967.66;;;6.47;100.00
74242;BME280;62599;49.146;10.426;2023-03-14T02:46:01;93956.88;;;6.43;100.00
74242;BME280;62599;49.146;10.426;2023-03-14T02:48:31;93966.00;;;6.42;100.00
74242;BME280;62599;49.146;10.426;2023-03-14T02:50:59;93964.91;;;6.43;100.00
74242;BME280;62599;49.146;10.426;2023-03-14T02:53:31;93965.31;;;6.45;100.00
74242;BME280;62599;49.146;10.426;2023-03-14T02:55:57;93964.44;;;6.41;100.00
74242;BME280;62599;49.146;10.426;2023-03-14T02:58:24;93971.34;;;6.42;100.00
74242;BME280;62599;49.146;10.426;2023-03-14T03:00:49;93969.81;;;6.41;100.00
74242;BME280;62599;49.146;10.426;2023-03-14T03:03:15;93965.91;;;6.39;100.00
74242;BME280;62599;49.146;10.426;2023-03-14T03:05:41;93964.03;;;6.39;100.00
74242;BME280;62599;49.146;10.426;2023-03-14T03:08:08;93968.88;;;6.34;100.00
74242;BME280;62599;49.146;10.426;2023-03-14T03:10:33;93965.41;;;6.33;100.00
74242;BME280;62599;49.146;10.426;2023-03-14T03:12:59;93960.06;;;6.33;100.00
74242;BME280;62599;49.146;10.426;2023-03-14T03:15:24;93960.06;;;6.33;100.00
74242;BME280;62599;49.146;10.426;2023-03-14T03:17:50;93964.97;;;6.31;100.00
74242;BME280;62599;49.146;10.426;2023-03-14T03:20:15;93968.78;;;6.30;100.00
74242;BME280;62599;49.146;10.426;2023-03-14T03:22:41;93972.16;;;6.27;100.00
74242;BME280;62599;49.146;10.426;2023-03-14T03:25:08;93958.69;;;6.23;100.00
74242;BME280;62599;49.146;10.426;2023-03-14T03:27:37;93965.59;;;6.24;100.00
74242;BME280;62599;49.146;10.426;2023-03-14T03:30:05;93971.66;;;6.21;100.00
74242;BME280;62599;49.146;10.426;2023-03-14T03:32:31;93969.75;;;6.22;100.00
74242;BME280;62599;49.146;10.426;2023-03-14T03:34:56;93965.84;;;6.19;100.00
74242;BME280;62599;49.146;10.426;2023-03-14T03:37:21;93962.84;;;6.21;100.00
74242;BME280;62599;49.146;10.426;2023-03-14T03:39:50;93959.28;;;6.17;100.00
74242;BME280;62599;49.146;10.426;2023-03-14T03:42:15;93953.53;;;6.15;100.00
74242;BME280;62599;49.146;10.426;2023-03-14T03:44:40;93942.47;;;6.16;100.00
74242;BME280;62599;49.146;10.426;2023-03-14T03:47:06;93943.34;;;6.20;100.00
74242;BME280;62599;49.146;10.426;2023-03-14T03:49:32;93939.97;;;6.23;100.00
74242;BME280;62599;49.146;10.426;2023-03-14T03:51:58;93920.09;;;6.21;100.00
74242;BME280;62599;49.146;10.426;2023-03-14T03:54:23;93913.53;;;6.18;100.00
74242;BME280;62599;49.146;10.426;2023-03-14T03:56:49;93917.66;;;6.16;100.00
74242;BME280;62599;49.146;10.426;2023-03-14T03:59:14;93926.38;;;6.13;100.00
74242;BME280;62599;49.146;10.426;2023-03-14T04:01:40;93931.72;;;6.13;100.00
74242;BME280;62599;49.146;10.426;2023-03-14T04:04:06;93918.88;;;6.18;100.00
74242;BME280;62599;49.146;10.426;2023-03-14T04:06:31;93920.78;;;6.18;100.00
74242;BME280;62599;49.146;10.426;2023-03-14T04:08:57;93913.44;;;6.15;100.00
74242;BME280;62599;49.146;10.426;2023-03-14T04:11:22;93916.13;;;6.15;100.00
74242;BME280;62599;49.146;10.426;2023-03-14T04:13:48;93912.75;;;6.18;100.00
74242;BME280;62599;49.146;10.426;2023-03-14T04:16:16;93912.06;;;6.21;100.00
74242;BME280;62599;49.146;10.426;2023-03-14T04:18:42;93905.16;;;6.20;100.00
74242;BME280;62599;49.146;10.426;2023-03-14T04:21:07;93899.81;;;6.20;100.00
74242;BME280;62599;49.146;10.426;2023-03-14T04:23:32;93905.16;;;6.20;100.00
74242;BME280;62599;49.146;10.426;2023-03-14T04:25:59;93897.56;;;6.22;100.00
74242;BME280;62599;49.146;10.426;2023-03-14T04:28:24;93883.75;;;6.20;100.00
74242;BME280;62599;49.146;10.426;2023-03-14T04:30:49;93896.72;;;6.18;100.00
74242;BME280;62599;49.146;10.426;2023-03-14T04:33:15;93897.50;;;6.18;100.00
74242;BME280;62599;49.146;10.426;2023-03-14T04:35:43;93895.22;;;6.20;100.00
74242;BME280;62599;49.146;10.426;2023-03-14T04:38:08;93891.53;;;6.25;100.00
74242;BME280;62599;49.146;10.426;2023-03-14T04:40:36;93896.16;;;6.28;100.00
74242;BME280;62599;49.146;10.426;2023-03-14T04:43:02;93901.25;;;6.33;100.00
74242;BME280;62599;49.146;10.426;2023-03-14T04:45:27;93895.63;;;6.38;100.00
74242;BME280;62599;49.146;10.426;2023-03-14T04:47:53;93887.34;;;6.43;100.00
74242;BME280;62599;49.146;10.426;2023-03-14T04:50:18;93898.03;;;6.43;100.00
74242;BME280;62599;49.146;10.426;2023-03-14T04:52:44;93889.75;;;6.48;100.00
74242;BME280;62599;49.146;10.426;2023-03-14T04:55:09;93888.53;;;6.46;100.00
74242;BME280;62599;49.146;10.426;2023-03-14T04:57:34;93897.06;;;6.51;100.00
74242;BME280;62599;49.146;10.426;2023-03-14T05:00:00;93897.75;;;6.48;100.00
74242;BME280;62599;49.146;10.426;2023-03-14T05:02:25;93899.50;;;6.41;100.00
74242;BME280;62599;49.146;10.426;2023-03-14T05:04:51;93893.78;;;6.42;100.00
74242;BME280;62599;49.146;10.426;2023-03-14T05:07:16;93897.59;;;6.41;100.00
74242;BME280;62599;49.146;10.426;2023-03-14T05:09:42;93894.09;;;6.37;100.00
74242;BME280;62599;49.146;10.426;2023-03-14T05:12:07;93895.63;;;6.38;100.00
74242;BME280;62599;49.146;10.426;2023-03-14T05:14:33;93886.34;;;6.32;100.00
74242;BME280;62599;49.146;10.426;2023-03-14T05:16:59;93885.53;;;6.32;100.00
74242;BME280;62599;49.146;10.426;2023-03-14T05:19:24;93884.69;;;6.27;100.00
74242;BME280;62599;49.146;10.426;2023-03-14T05:21:50;93874.78;;;6.28;100.00
74242;BME280;62599;49.146;10.426;2023-03-14T05:24:15;93867.63;;;6.32;100.00
74242;BME280;62599;49.146;10.426;2023-03-14T05:26:40;93869.56;;;6.35;100.00
74242;BME280;62599;49.146;10.426;2023-03-14T05:29:06;93868.13;;;6.38;100.00
74242;BME280;62599;49.146;10.426;2023-03-14T05:31:31;93868.88;;;6.38;100.00
74242;BME280;62599;49.146;10.426;2023-03-14T05:33:57;93864.16;;;6.32;100.00
74242;BME280;62599;49.146;10.426;2023-03-14T05:36:22;93857.19;;;6.27;100.00
74242;BME280;62599;49.146;10.426;2023-03-14T05:38:47;93849.16;;;6.27;100.00
74242;BME280;62599;49.146;10.426;2023-03-14T05:41:13;93851.06;;;6.26;100.00
74242;BME280;62599;49.146;10.426;2023-03-14T05:43:38;93847.28;;;6.27;100.00
74242;BME280;62599;49.146;10.426;2023-03-14T05:46:04;93846.94;;;6.29;100.00
74242;BME280;62599;49.146;10.426;2023-03-14T05:48:30;93841.16;;;6.27;100.00
74242;BME280;62599;49.146;10.426;2023-03-14T05:50:56;93860.31;;;6.29;100.00
74242;BME280;62599;49.146;10.426;2023-03-14T05:53:21;93855.81;;;6.33;100.00
74242;BME280;62599;49.146;10.426;2023-03-14T05:55:47;93854.25;;;6.32;100.00
74242;BME280;62599;49.146;10.426;2023-03-14T05:58:12;93855.81;;;6.33;100.00
74242;BME280;62599;49.146;10.426;2023-03-14T06:00:38;93851.91;;;6.31;100.00
74242;BME280;62599;49.146;10.426;2023-03-14T06:03:03;93851.06;;;6.26;100.00
74242;BME280;62599;49.146;10.426;2023-03-14T06:05:32;93856.50;;;6.30;100.00
74242;BME280;62599;49.146;10.426;2023-03-14T06:07:57;93850.72;;;6.28;100.00
74242;BME280;62599;49.146;10.426;2023-03-14T06:10:22;93847.00;;;6.33;100.00
74242;BME280;62599;49.146;10.426;2023-03-14T06:12:48;93840.16;;;6.35;100.00
74242;BME280;62599;49.146;10.426;2023-03-14T06:15:13;93842.91;;;6.39;100.00
74242;BME280;62599;49.146;10.426;2023-03-14T06:17:38;93839.56;;;6.42;100.00
74242;BME280;62599;49.146;10.426;2023-03-14T06:20:04;93844.97;;;6.45;100.00
74242;BME280;62599;49.146;10.426;2023-03-14T06:22:30;93845.19;;;6.37;100.00
74242;BME280;62599;49.146;10.426;2023-03-14T06:24:55;93834.97;;;6.42;100.00
74242;BME280;62599;49.146;10.426;2023-03-14T06:27:20;93838.22;;;6.51;100.00
74242;BME280;62599;49.146;10.426;2023-03-14T06:29:46;93838.59;;;6.50;100.00
74242;BME280;62599;49.146;10.426;2023-03-14T06:32:11;93840.97;;;6.55;100.00
74242;BME280;62599;49.146;10.426;2023-03-14T06:34:37;93851.59;;;6.51;100.00
74242;BME280;62599;49.146;10.426;2023-03-14T06:37:03;93846.31;;;6.55;100.00
74242;BME280;62599;49.146;10.426;2023-03-14T06:39:29;93853.66;;;6.58;100.00
74242;BME280;62599;49.146;10.426;2023-03-14T06:41:54;93855.81;;;6.53;100.00
74242;BME280;62599;49.146;10.426;2023-03-14T06:44:19;93859.41;;;6.60;100.00
74242;BME280;62599;49.146;10.426;2023-03-14T06:46:45;93855.19;;;6.59;100.00
74242;BME280;62599;49.146;10.426;2023-03-14T06:49:10;93843.94;;;6.69;100.00
74242;BME280;62599;49.146;10.426;2023-03-14T06:51:35;93847.53;;;6.77;100.00
74242;BME280;62599;49.146;10.426;2023-03-14T06:54:01;93850.06;;;6.89;100.00
74242;BME280;62599;49.146;10.426;2023-03-14T06:56:26;93854.78;;;6.96;100.00
74242;BME280;62599;49.146;10.426;2023-03-14T06:58:51;93845.66;;;7.00;100.00
74242;BME280;62599;49.146;10.426;2023-03-14T07:01:21;93856.09;;;7.06;100.00
74242;BME280;62599;49.146;10.426;2023-03-14T07:03:47;93860.53;;;7.17;100.00
74242;BME280;62599;49.146;10.426;2023-03-14T07:06:13;93854.84;;;7.19;100.00
74242;BME280;62599;49.146;10.426;2023-03-14T07:08:38;93851.09;;;7.23;100.00
74242;BME280;62599;49.146;10.426;2023-03-14T07:11:04;93851.97;;;7.31;100.00
74242;BME280;62599;49.146;10.426;2023-03-14T07:13:30;93840.56;;;7.34;100.00
74242;BME280;62599;49.146;10.426;2023-03-14T07:15:58;93844.06;;;7.38;100.00
74242;BME280;62599;49.146;10.426;2023-03-14T07:18:24;93854.91;;;7.45;100.00
74242;BME280;62599;49.146;10.426;2023-03-14T07:20:49;93848.78;;;7.45;100.00
74242;BME280;62599;49.146;10.426;2023-03-14T07:23:15;93849.69;;;7.53;100.00
74242;BME280;62599;49.146;10.426;2023-03-14T07:25:40;93863.06;;;7.53;100.00
74242;BME280;62599;49.146;10.426;2023-03-14T07:28:06;93853.38;;;7.44;100.00
74242;BME280;62599;49.146;10.426;2023-03-14T07:30:31;93852.81;;;7.35;100.00
74242;BME280;62599;49.146;10.426;2023-03-14T07:32:56;93868.31;;;7.26;100.00
74242;BME280;62599;49.146;10.426;2023-03-14T07:35:22;93864.41;;;7.20;100.00
74242;BME280;62599;49.146;10.426;2023-03-14T07:37:47;93868.69;;;7.24;100.00
74242;BME280;62599;49.146;10.426;2023-03-14T07:40:13;93865.00;;;7.33;100.00
74242;BME280;62599;49.146;10.426;2023-03-14T07:42:41;93868.25;;;7.42;100.00
74242;BME280;62599;49.146;10.426;2023-03-14T07:45:07;93864.78;;;7.41;100.00
74242;BME280;62599;49.146;10.426;2023-03-14T07:47:33;93872.13;;;7.44;100.00
74242;BME280;62599;49.146;10.426;2023-03-14T07:49:58;93866.22;;;7.35;100.00
74242;BME280;62599;49.146;10.426;2023-03-14T07:52:23;93866.63;;;7.37;100.00
74242;BME280;62599;49.146;10.426;2023-03-14T07:54:49;93868.19;;;7.38;100.00
74242;BME280;62599;49.146;10.426;2023-03-14T07:57:14;93873.22;;;7.43;100.00
74242;BME280;62599;49.146;10.426;2023-03-14T07:59:40;93872.66;;;7.54;100.00
74242;BME280;62599;49.146;10.426;2023-03-14T08:02:05;93879.34;;;7.44;100.00
74242;BME280;62599;49.146;10.426;2023-03-14T08:04:36;93869.25;;;7.57;100.00
74242;BME280;62599;49.146;10.426;2023-03-14T08:07:01;93883.97;;;7.89;100.00
74242;BME280;62599;49.146;10.426;2023-03-14T08:09:27;93875.25;;;8.46;100.00
74242;BME280;62599;49.146;10.426;2023-03-14T08:11:52;93870.00;;;8.83;100.00
74242;BME280;62599;49.146;10.426;2023-03-14T08:14:18;93872.38;;;8.91;100.00
74242;BME280;62599;49.146;10.426;2023-03-14T08:16:43;93872.56;;;9.06;100.00
74242;BME280;62599;49.146;10.426;2023-03-14T08:19:08;93870.75;;;9.17;100.00
74242;BME280;62599;49.146;10.426;2023-03-14T08:21:34;93867.03;;;8.91;100.00
74242;BME280;62599;49.146;10.426;2023-03-14T08:24:02;93860.91;;;8.95;100.00
74242;BME280;62599;49.146;10.426;2023-03-14T08:26:28;93851.81;;;9.03;100.00
74242;BME280;62599;49.146;10.426;2023-03-14T08:28:53;93855.28;;;9.07;100.00
74242;BME280;62599;49.146;10.426;2023-03-14T08:31:18;93849.69;;;9.19;100.00
74242;BME280;62599;49.146;10.426;2023-03-14T08:33:44;93854.00;;;9.27;100.00
74242;BME280;62599;49.146;10.426;2023-03-14T08:36:10;93845.66;;;9.39;100.00
74242;BME280;62599;49.146;10.426;2023-03-14T08:38:35;93847.16;;;9.33;100.00
74242;BME280;62599;49.146;10.426;2023-03-14T08:41:02;93843.94;;;9.61;100.00
74242;BME280;62599;49.146;10.426;2023-03-14T08:43:29;93848.56;;;9.61;99.39
74242;BME280;62599;49.146;10.426;2023-03-14T08:45:59;93843.97;;;9.65;98.64
74242;BME280;62599;49.146;10.426;2023-03-14T08:48:24;93851.03;;;9.80;95.45
74242;BME280;62599;49.146;10.426;2023-03-14T08:50:49;93848.78;;;9.86;94.92
74242;BME280;62599;49.146;10.426;2023-03-14T08:53:15;93844.22;;;9.94;92.10
74242;BME280;62599;49.146;10.426;2023-03-14T08:55:40;93833.22;;;10.13;92.99
74242;BME280;62599;49.146;10.426;2023-03-14T08:58:05;93834.34;;;10.12;91.14
74242;BME280;62599;49.146;10.426;2023-03-14T09:00:31;93842.69;;;9.93;88.31
74242;BME280;62599;49.146;10.426;2023-03-14T09:02:56;93846.47;;;9.84;86.14
74242;BME280;62599;49.146;10.426;2023-03-14T09:05:22;93838.72;;;9.79;86.14
74242;BME280;62599;49.146;10.426;2023-03-14T09:07:47;93835.34;;;9.89;85.83
74242;BME280;62599;49.146;10.426;2023-03-14T09:10:12;93843.44;;;9.93;82.85
74242;BME280;62599;49.146;10.426;2023-03-14T09:12:38;93833.59;;;10.11;83.23
74242;BME280;62599;49.146;10.426;2023-03-14T09:15:04;93826.84;;;10.32;81.24
74242;BME280;62599;49.146;10.426;2023-03-14T09:17:29;93835.13;;;10.71;80.02
74242;BME280;62599;49.146;10.426;2023-03-14T09:19:55;93834.44;;;10.92;74.70
74242;BME280;62599;49.146;10.426;2023-03-14T09:22:20;93833.31;;;10.97;73.21
74242;BME280;62599;49.146;10.426;2023-03-14T09:24:46;93831.44;;;11.08;74.99
74242;BME280;62599;49.146;10.426;2023-03-14T09:27:12;93839.91;;;11.14;72.92
74242;BME280;62599;49.146;10.426;2023-03-14T09:29:37;93830.28;;;11.09;73.51
74242;BME280;62599;49.146;10.426;2023-03-14T09:32:03;93823.34;;;11.04;72.81
74242;BME280;62599;49.146;10.426;2023-03-14T09:34:28;93822.88;;;10.84;73.41
74242;BME280;62599;49.146;10.426;2023-03-14T09:36:54;93826.22;;;10.64;73.40
74242;BME280;62599;49.146;10.426;2023-03-14T09:39:19;93823.19;;;10.65;74.72
74242;BME280;62599;49.146;10.426;2023-03-14T09:41:49;93803.22;;;10.80;74.72
74242;BME280;62599;49.146;10.426;2023-03-14T09:46:44;93820.25;;;11.06;73.09
74242;BME280;62599;49.146;10.426;2023-03-14T09:49:34;93809.47;;;11.09;74.20
74242;BME280;62599;49.146;10.426;2023-03-14T09:52:04;93818.00;;;11.22;71.71
74242;BME280;62599;49.146;10.426;2023-03-14T09:54:34;93814.91;;;11.24;72.54
74242;BME280;62599;49.146;10.426;2023-03-14T09:57:02;93814.91;;;11.27;72.46
74242;BME280;62599;49.146;10.426;2023-03-14T09:59:28;93816.06;;;11.23;70.54
74242;BME280;62599;49.146;10.426;2023-03-14T10:01:57;93819.53;;;11.27;71.17
74242;BME280;62599;49.146;10.426;2023-03-14T10:04:23;93820.31;;;11.35;70.88
74242;BME280;62599;49.146;10.426;2023-03-14T10:06:49;93830.34;;;11.34;70.23
74242;BME280;62599;49.146;10.426;2023-03-14T10:09:23;93822.25;;;11.41;71.35
74242;BME280;62599;49.146;10.426;2023-03-14T10:11:54;93833.84;;;11.49;69.84
74242;BME280;62599;49.146;10.426;2023-03-14T10:14:32;93826.09;;;11.47;70.58
74242;BME280;62599;49.146;10.426;2023-03-14T10:17:09;93841.09;;;11.27;70.87
74242;BME280;62599;49.146;10.426;2023-03-14T10:19:35;93844.94;;;11.22;71.80
74242;BME280;62599;49.146;10.426;2023-03-14T10:22:04;93831.91;;;11.46;71.85
74242;BME280;62599;49.146;10.426;2023-03-14T10:24:32;93832.69;;;11.57;71.36
74242;BME280;62599;49.146;10.426;2023-03-14T10:27:05;93828.81;;;11.51;70.39
74242;BME280;62599;49.146;10.426;2023-03-14T10:29:33;93821.13;;;11.53;71.16
74242;BME280;62599;49.146;10.426;2023-03-14T10:32:18;93829.25;;;11.81;69.70
74242;BME280;62599;49.146;10.426;2023-03-14T10:34:44;93833.50;;;11.90;69.62
74242;BME280;62599;49.146;10.426;2023-03-14T10:37:21;93831.22;;;11.95;67.77
74242;BME280;62599;49.146;10.426;2023-03-14T10:39:48;93847.34;;;11.81;69.09
74242;BME280;62599;49.146;10.426;2023-03-14T10:42:24;93844.25;;;11.75;69.37
74242;BME280;62599;49.146;10.426;2023-03-14T10:44:59;93843.09;;;11.80;69.79
74242;BME280;62599;49.146;10.426;2023-03-14T10:47:27;93842.31;;;11.65;69.22
74242;BME280;62599;49.146;10.426;2023-03-14T10:49:54;93826.50;;;11.46;70.13
74242;BME280;62599;49.146;10.426;2023-03-14T10:52:25;93848.03;;;11.35;71.92
74242;BME280;62599;49.146;10.426;2023-03-14T10:54:58;93843.06;;;11.41;70.70
74242;BME280;62599;49.146;10.426;2023-03-14T10:57:24;93839.97;;;11.42;70.22
74242;BME280;62599;49.146;10.426;2023-03-14T10:59:51;93843.88;;;11.63;71.37
74242;BME280;62599;49.146;10.426;2023-03-14T11:15:49;93828.00;;;11.25;72.93
74242;BME280;62599;49.146;10.426;2023-03-14T11:28:50;93811.75;;;10.97;74.48
74242;BME280;62599;49.146;10.426;2023-03-14T11:39:14;93801.88;;;11.65;72.72
74242;BME280;62599;49.146;10.426;2023-03-14T11:41:43;93808.81;;;12.16;69.21
74242;BME280;62599;49.146;10.426;2023-03-14T11:44:18;93811.84;;;12.47;65.79
74242;BME280;62599;49.146;10.426;2023-03-14T11:46:53;93807.13;;;12.83;65.17
74242;BME280;62599;49.146;10.426;2023-03-14T11:51:52;93809.03;;;12.90;63.60
74242;BME280;62599;49.146;10.426;2023-03-14T11:54:44;93802.47;;;12.87;63.98
74242;BME280;62599;49.146;10.426;2023-03-14T11:57:30;93807.06;;;12.94;63.21
74242;BME280;62599;49.146;10.426;2023-03-14T12:10:45;93816.97;;;13.33;61.90
74242;BME280;62599;49.146;10.426;2023-03-14T12:13:13;93826.25;;;13.21;62.63
74242;BME280;62599;49.146;10.426;2023-03-14T12:15:41;93829.84;;;12.96;62.97
74242;BME280;62599;49.146;10.426;2023-03-14T12:18:20;93833.47;;;12.43;65.05
74242;BME280;62599;49.146;10.426;2023-03-14T12:20:52;93852.41;;;12.08;66.85
74242;BME280;62599;49.146;10.426;2023-03-14T12:23:19;93854.31;;;12.00;68.20
74242;BME280;62599;49.146;10.426;2023-03-14T12:25:45;93840.06;;;11.89;69.81
74242;BME280;62599;49.146;10.426;2023-03-14T12:30:43;93860.28;;;11.00;75.34
74242;BME280;62599;49.146;10.426;2023-03-14T12:35:39;93876.31;;;10.20;84.46
74242;BME280;62599;49.146;10.426;2023-03-14T12:38:10;93877.25;;;9.94;86.56
74242;BME280;62599;49.146;10.426;2023-03-14T12:40:41;93867.97;;;9.84;89.84
74242;BME280;62599;49.146;10.426;2023-03-14T12:43:39;93881.38;;;9.81;90.91
74242;BME280;62599;49.146;10.426;2023-03-14T12:48:44;93872.34;;;9.59;92.57
74242;BME280;62599;49.146;10.426;2023-03-14T12:56:48;93891.34;;;9.06;97.09
74242;BME280;62599;49.146;10.426;2023-03-14T13:01:56;93899.28;;;8.65;100.00
74242;BME280;62599;49.146;10.426;2023-03-14T13:04:31;93895.63;;;8.50;100.00
74242;BME280;62599;49.146;10.426;2023-03-14T13:06:59;93884.66;;;8.36;100.00
74242;BME280;62599;49.146;10.426;2023-03-14T13:11:53;93890.13;;;8.16;100.00
74242;BME280;62599;49.146;10.426;2023-03-14T13:14:23;93905.50;;;8.19;100.00
74242;BME280;62599;49.146;10.426;2023-03-14T13:16:48;93904.81;;;8.26;100.00
74242;BME280;62599;49.146;10.426;2023-03-14T13:19:19;93910.00;;;8.38;100.00
74242;BME280;62599;49.146;10.426;2023-03-14T13:21:45;93899.25;;;8.61;100.00
74242;BME280;62599;49.146;10.426;2023-03-14T13:24:23;93899.97;;;8.88;100.00
74242;BME280;62599;49.146;10.426;2023-03-14T13:26:52;93914.28;;;9.00;100.00
74242;BME280;62599;49.146;10.426;2023-03-14T13:29:24;93926.78;;;9.15;100.00
74242;BME280;62599;49.146;10.426;2023-03-14T13:31:52;93915.69;;;9.20;99.58
74242;BME280;62599;49.146;10.426;2023-03-14T13:34:34;93915.22;;;9.14;98.56
74242;BME280;62599;49.146;10.426;2023-03-14T13:37:00;93934.28;;;9.02;99.68
74242;BME280;62599;49.146;10.426;2023-03-14T13:39:27;93932.94;;;8.89;99.59
74242;BME280;62599;49.146;10.426;2023-03-14T13:41:58;93937.41;;;8.78;100.00
74242;BME280;62599;49.146;10.426;2023-03-14T13:44:30;93939.13;;;8.63;100.00
74242;BME280;62599;49.146;10.426;2023-03-14T13:47:00;93939.34;;;8.51;100.00
74242;BME280;62599;49.146;10.426;2023-03-14T13:49:27;93973.91;;;8.33;100.00
74242;BME280;62599;49.146;10.426;2023-03-14T13:51:54;93970.94;;;8.15;100.00
74242;BME280;62599;49.146;10.426;2023-03-14T13:54:21;94008.66;;;8.03;100.00
74242;BME280;62599;49.146;10.426;2023-03-14T13:56:47;94029.34;;;7.83;100.00
74242;BME280;62599;49.146;10.426;2023-03-14T13:59:27;94021.53;;;7.55;98.78
74242;BME280;62599;49.146;10.426;2023-03-14T14:01:55;94029.84;;;7.30;100.00
74242;BME280;62599;49.146;10.426;2023-03-14T14:04:23;94045.53;;;7.12;100.00
74242;BME280;62599;49.146;10.426;2023-03-14T14:06:59;94065.00;;;6.93;100.00